createdAt,value
2023-03-18T00:00:50.135Z,4.47
2023-03-18T00:05:53.298Z,4.13
2023-03-18T00:15:39.329Z,4.07
2023-03-18T00:20:39.048Z,3.60
2023-03-18T00:25:33.117Z,3.83
2023-03-18T00:30:25.493Z,5.22
2023-03-18T00:35:19.592Z,3.77
2023-03-18T00:40:17.314Z,2.83
2023-03-18T00:45:12.075Z,3.53
2023-03-18T00:50:04.902Z,4.28
2023-03-18T00:54:56.933Z,4.88
2023-03-18T00:59:48.902Z,4.53
2023-03-18T01:04:41.024Z,3.22
2023-03-18T01:09:34.786Z,4.82
2023-03-18T01:14:27.889Z,4.22
2023-03-18T01:19:22.087Z,4.18
2023-03-18T01:24:14.240Z,1.83
2023-03-18T01:29:06.312Z,3.10
2023-03-18T01:33:59.877Z,2.88
2023-03-18T01:38:58.250Z,3.63
2023-03-18T01:43:50.457Z,3.03
2023-03-18T01:48:44.877Z,3.40
2023-03-18T01:53:41.792Z,2.35
2023-03-18T01:58:37.912Z,5.93
2023-03-18T02:03:30.037Z,5.30
2023-03-18T02:08:22.191Z,4.53
2023-03-18T02:13:16.175Z,2.92
2023-03-18T02:18:14.937Z,3.58
2023-03-18T02:23:43.922Z,2.55
2023-03-18T02:28:38.719Z,2.67
2023-03-18T02:33:36.299Z,3.83
2023-03-18T02:38:45.584Z,2.88
2023-03-18T02:43:42.698Z,3.03
2023-03-18T02:48:38.849Z,2.95
2023-03-18T02:53:34.133Z,3.88
2023-03-18T02:58:26.305Z,2.33
2023-03-18T03:03:21.904Z,3.15
2023-03-18T03:08:15.434Z,2.00
2023-03-18T03:13:38.435Z,3.22
2023-03-18T03:18:35.476Z,2.67
2023-03-18T03:23:54.702Z,3.72
2023-03-18T03:28:51.812Z,2.33
2023-03-18T03:33:48.731Z,2.72
2023-03-18T03:38:54.104Z,3.08
2023-03-18T03:43:46.101Z,2.45
2023-03-18T03:48:40.145Z,1.95
2023-03-18T03:53:36.654Z,3.65
2023-03-18T03:58:29.434Z,2.10
2023-03-18T04:03:22.689Z,3.22
2023-03-18T04:08:14.829Z,2.60
2023-03-18T04:13:08.949Z,2.10
2023-03-18T04:18:06.838Z,2.42
2023-03-18T04:22:59.506Z,2.70
2023-03-18T04:27:55.191Z,4.70
2023-03-18T04:32:53.347Z,1.95
2023-03-18T04:37:45.792Z,3.35
2023-03-18T04:42:38.924Z,3.07
2023-03-18T04:47:33.278Z,2.78
2023-03-18T04:52:25.936Z,2.88
2023-03-18T04:57:19.844Z,3.22
2023-03-18T05:02:19.985Z,2.40
2023-03-18T05:07:16.651Z,2.25
2023-03-18T05:12:21.940Z,2.50
2023-03-18T05:17:17.588Z,1.85
2023-03-18T05:22:21.088Z,3.08
2023-03-18T05:27:19.269Z,2.65
2023-03-18T05:32:20.346Z,2.57
2023-03-18T05:37:18.884Z,2.15
2023-03-18T05:42:21.574Z,2.80
2023-03-18T05:47:14.202Z,2.50
2023-03-18T05:52:21.549Z,2.75
2023-03-18T05:57:15.807Z,2.15
2023-03-18T06:02:08.372Z,3.00
2023-03-18T06:07:03.317Z,2.50
2023-03-18T06:11:57.375Z,3.17
2023-03-18T06:21:46.088Z,2.13
2023-03-18T06:26:38.285Z,2.73
2023-03-18T06:36:24.412Z,3.00
2023-03-18T06:41:18.376Z,3.25
2023-03-18T06:46:25.430Z,2.58
2023-03-18T06:51:18.696Z,2.03
2023-03-18T06:56:15.889Z,2.47
2023-03-18T07:06:22.834Z,2.42
2023-03-18T07:11:14.897Z,2.25
2023-03-18T07:16:08.779Z,2.08
2023-03-18T07:21:01.560Z,3.80
2023-03-18T07:25:53.628Z,2.33
2023-03-18T07:30:45.797Z,2.95
2023-03-18T07:35:42.085Z,2.88
2023-03-18T07:40:34.058Z,2.95
2023-03-18T07:45:25.942Z,2.15
2023-03-18T07:50:49.463Z,2.45
2023-03-18T07:55:42.020Z,2.45
2023-03-18T08:00:34.002Z,3.25
2023-03-18T08:05:47.911Z,2.73
2023-03-18T08:10:39.923Z,3.00
2023-03-18T08:15:32.131Z,2.72
2023-03-18T08:20:25.415Z,3.07
2023-03-18T08:25:27.165Z,2.78
2023-03-18T08:30:19.447Z,2.03
2023-03-18T08:35:12.975Z,3.60
2023-03-18T08:40:06.594Z,1.30
2023-03-18T08:44:58.741Z,10.60
2023-03-18T08:49:52.153Z,11.33
2023-03-18T08:54:44.076Z,13.80
2023-03-18T08:59:36.749Z,22.33
2023-03-18T09:04:30.003Z,23.85
2023-03-18T09:09:26.276Z,65.82
2023-03-18T09:14:34.526Z,44.30
2023-03-18T09:19:27.241Z,42.53
2023-03-18T09:24:19.103Z,26.35
2023-03-18T09:29:12.367Z,25.30
2023-03-18T09:34:04.386Z,28.88
2023-03-18T09:38:56.242Z,27.27
2023-03-18T09:44:04.117Z,26.13
2023-03-18T09:49:10.242Z,24.00
2023-03-18T09:54:07.128Z,19.48
2023-03-18T09:59:08.486Z,21.10
2023-03-18T10:04:40.586Z,23.83
2023-03-18T10:10:01.216Z,20.55
2023-03-18T10:15:37.569Z,16.00
2023-03-18T10:20:50.425Z,18.48
2023-03-18T10:25:53.642Z,13.77
2023-03-18T10:35:53.846Z,18.27
2023-03-18T10:40:47.842Z,21.80
2023-03-18T10:45:39.910Z,14.88
2023-03-18T10:50:36.754Z,19.05
2023-03-18T10:55:36.601Z,17.67
2023-03-18T11:00:34.066Z,14.43
2023-03-18T11:05:28.865Z,11.07
2023-03-18T11:10:26.116Z,15.88
2023-03-18T11:15:20.643Z,16.00
2023-03-18T11:20:25.415Z,14.93
2023-03-18T11:25:20.238Z,13.40
2023-03-18T11:30:33.083Z,12.45
2023-03-18T11:35:46.254Z,13.65
2023-03-18T11:40:40.342Z,11.07
2023-03-18T11:45:43.438Z,12.85
2023-03-18T11:50:41.843Z,14.40
2023-03-18T11:55:44.171Z,12.98
2023-03-18T12:00:52.686Z,11.63
2023-03-18T12:06:11.339Z,10.15
2023-03-18T12:11:16.727Z,19.85
2023-03-18T12:16:26.523Z,30.83
2023-03-18T12:22:07.026Z,16.02
2023-03-18T12:27:27.987Z,16.52
2023-03-18T12:32:28.054Z,14.88
2023-03-18T12:37:19.986Z,14.43
2023-03-18T12:42:17.672Z,14.18
2023-03-18T12:47:16.329Z,15.88
2023-03-18T12:52:27.552Z,15.88
2023-03-18T12:57:32.292Z,13.10
2023-03-18T13:02:59.488Z,11.57
2023-03-18T13:08:04.041Z,13.63
2023-03-18T13:17:49.590Z,10.57
2023-03-18T13:27:47.281Z,8.85
2023-03-18T13:32:48.168Z,11.15
2023-03-18T13:38:07.816Z,15.25
2023-03-18T13:43:01.565Z,9.82
2023-03-18T13:47:59.513Z,11.32
2023-03-18T13:52:54.436Z,9.25
2023-03-18T13:57:49.349Z,7.82
2023-03-18T14:02:41.783Z,13.40
2023-03-18T14:07:46.964Z,7.37
2023-03-18T14:12:41.369Z,10.07
2023-03-18T14:17:47.945Z,10.80
2023-03-18T14:22:40.693Z,11.35
2023-03-18T14:27:32.588Z,8.30
2023-03-18T14:32:33.504Z,6.93
2023-03-18T14:37:31.437Z,7.70
2023-03-18T14:42:23.426Z,10.60
2023-03-18T14:47:38.253Z,8.73
2023-03-18T14:52:34.717Z,7.70
2023-03-18T14:57:26.627Z,7.03
2023-03-18T15:02:28.121Z,7.25
2023-03-18T15:07:38.454Z,8.63
2023-03-18T15:12:31.097Z,5.63
2023-03-18T15:17:26.032Z,6.10
2023-03-18T15:22:26.237Z,7.05
2023-03-18T15:27:22.007Z,6.82
2023-03-18T15:32:33.170Z,7.45
2023-03-18T15:37:32.065Z,8.32
2023-03-18T15:42:24.418Z,7.00
2023-03-18T15:47:17.704Z,6.20
2023-03-18T15:52:09.616Z,10.00
2023-03-18T15:57:11.506Z,6.55
2023-03-18T16:02:06.167Z,6.55
2023-03-18T16:06:59.608Z,6.10
2023-03-18T16:12:01.127Z,6.65
2023-03-18T16:16:53.292Z,8.52
2023-03-18T16:21:45.997Z,8.83
2023-03-18T16:26:37.957Z,6.05
2023-03-18T16:31:29.826Z,5.57
2023-03-18T16:36:32.153Z,8.32
2023-03-18T16:41:24.085Z,4.73
2023-03-18T16:46:17.480Z,7.28
2023-03-18T16:51:10.792Z,6.75
2023-03-18T16:56:12.015Z,5.63
2023-03-18T17:01:07.472Z,6.47
2023-03-18T17:05:59.844Z,6.45
2023-03-18T17:10:58.170Z,5.50
2023-03-18T17:15:51.036Z,8.93
2023-03-18T17:20:44.507Z,7.82
2023-03-18T17:25:39.912Z,9.38
2023-03-18T17:30:41.014Z,8.55
2023-03-18T17:35:33.798Z,15.20
2023-03-18T17:40:28.971Z,12.48
2023-03-18T17:45:29.634Z,7.88
2023-03-18T17:50:21.547Z,7.07
2023-03-18T17:55:22.943Z,7.50
2023-03-18T18:00:16.544Z,8.35
2023-03-18T18:05:38.232Z,10.70
2023-03-18T18:10:30.146Z,7.13
2023-03-18T18:15:27.715Z,7.10
2023-03-18T18:20:21.283Z,8.40
2023-03-18T18:25:25.580Z,7.15
2023-03-18T18:30:19.988Z,7.63
2023-03-18T18:35:17.365Z,8.35
2023-03-18T18:40:11.318Z,9.18
2023-03-18T18:45:04.231Z,8.95
2023-03-18T18:49:57.624Z,8.02
2023-03-18T18:54:49.835Z,9.55
2023-03-18T18:59:41.784Z,9.10
2023-03-18T19:04:33.656Z,10.20
2023-03-18T19:09:27.343Z,9.07
2023-03-18T19:14:24.825Z,8.85
2023-03-18T19:19:26.660Z,9.48
2023-03-18T19:24:32.754Z,7.93
2023-03-18T19:29:24.958Z,10.82
2023-03-18T19:34:18.217Z,7.67
2023-03-18T19:39:18.441Z,12.90
2023-03-18T19:44:19.628Z,8.48
2023-03-18T19:49:27.960Z,13.20
2023-03-18T19:54:36.895Z,12.23
2023-03-18T19:59:37.524Z,9.55
2023-03-18T20:04:31.005Z,15.07
2023-03-18T20:09:25.091Z,7.53
2023-03-18T20:14:30.538Z,9.50
2023-03-18T20:19:26.900Z,9.73
2023-03-18T20:24:39.002Z,8.50
2023-03-18T20:29:31.463Z,8.10
2023-03-18T20:34:23.787Z,7.45
2023-03-18T20:39:20.717Z,6.93
2023-03-18T20:44:13.244Z,10.07
2023-03-18T20:49:07.457Z,7.40
2023-03-18T20:53:59.506Z,7.93
2023-03-18T20:58:51.563Z,6.32
2023-03-18T21:04:00.530Z,8.65
2023-03-18T21:08:52.611Z,6.38
2023-03-18T21:13:44.444Z,5.72
2023-03-18T21:18:37.816Z,7.07
2023-03-18T21:23:34.577Z,7.78
2023-03-18T21:28:28.364Z,6.30
2023-03-18T21:33:33.340Z,7.25
2023-03-18T21:38:27.191Z,6.45
2023-03-18T21:43:38.624Z,6.50
2023-03-18T21:48:31.621Z,7.35
2023-03-18T21:53:25.099Z,6.13
2023-03-18T21:58:22.485Z,8.60
2023-03-18T22:03:19.141Z,6.88
2023-03-18T22:08:11.000Z,5.43
2023-03-18T22:13:19.418Z,7.55
2023-03-18T22:18:15.252Z,6.82
2023-03-18T22:23:14.720Z,7.35
2023-03-18T22:28:12.517Z,8.23
2023-03-18T22:33:04.899Z,5.13
2023-03-18T22:37:58.277Z,8.97
2023-03-18T22:42:58.672Z,5.93
2023-03-18T22:48:19.891Z,8.27
2023-03-18T22:53:19.426Z,7.07
2023-03-18T22:58:19.583Z,8.23
2023-03-18T23:03:15.105Z,8.48
2023-03-18T23:08:07.398Z,7.63
2023-03-18T23:12:59.293Z,6.37
2023-03-18T23:17:51.168Z,6.95
2023-03-18T23:22:43.865Z,8.98
2023-03-18T23:27:36.899Z,8.20
2023-03-18T23:37:20.876Z,7.00
2023-03-18T23:42:16.393Z,6.18
2023-03-18T23:47:09.869Z,6.80
2023-03-18T23:52:03.573Z,8.15
2023-03-18T23:56:56.815Z,7.75
